Yorktown Express — WDD6127 — position and weather

sailwx.info

Track history (hours):
 
Tides and Currents Weather Stations Pressure Air Temp Water Temp Dewpoint Dewpoint Depression Visibility Wind Speed Wind Dir Waves Ship Positions

Yorktown Express

Owner: Marine Transport Management, Inc., Jacksonville, FL. More information available from US FCC via Universal Licensing System and Coast Guard Vessel Documentation Center.

Last reported at 2017-Mar-22 18:00 UTC. Time now 2017-Mar-22 22:08 UTC.
Position N 37°24' W 045°06'.

Type: Ship. MMSI: 367168650.

Wind from 230 at 18 knots

Barometer 1022.2 mb
Air temperature 22.0 ° C
Visibility: greater than 10.8 NM
Dewpoint 15.4 ° C
Water temperature 22.0 ° C

Date/timePositionNaut miles runAvg speedWind from/ knotsBaromVisibWave heightAir tempDewpointWater temp
2017-Mar-22 18:00N 37°24' W 045°06'11619.3 230 / 181022.210.8 22.015.422.0
2017-Mar-22 12:00N 37°42' W 042°42'11018.3 200 / 151022.310.8 21.017.820.0
2017-Mar-22 06:00N 38°18' W 040°30'11619.3 170 / 281023.110.8 19.015.720.0
2017-Mar-22 00:00N 39°00' W 038°12'11719.5 260 / 271028.110.8 19.013.820.0
2017-Mar-21 18:00N 39°48' W 035°54'10717.9 190 / 151029.710.8 18.0 8.318.0
2017-Mar-21 12:00N 40°24' W 033°42'9219.5 200 / 121032.410.8 18.0 5.818.0
2017-Mar-21 07:17N 41°03' W 031°52'2318.0
2017-Mar-21 06:00N 41°12' W 031°24'12020.0 250 / 121032.210.8 14.0 5.618.0
2017-Mar-21 00:00N 41°54' W 028°54'22418.7 290 / 151031.910.8 14.0 2.818.0
2017-Mar-20 12:00N 43°18' W 024°12'11118.5 300 / 251024.410.8 17.0 7.016.0
2017-Mar-20 06:00N 44°06' W 021°54'10818.0 300 / 251017.810.8 15.011.316.0
2017-Mar-20 00:00N 45°06' W 019°48'20316.9 220 / 351014.2 15.011.316.0
2017-Mar-19 12:00N 46°48' W 015°36'40317.1 230 / 301018.710.8 16.010.414.0
2017-Mar-18 12:24N 49°43' W 006°30'3217.2
2017-Mar-18 10:33N 49°46' W 005°42'1816.4
2017-Mar-18 09:29N 49°48' W 005°14'1516.1
2017-Mar-18 08:34N 49°51' W 004°52'1616.4
2017-Mar-18 07:34N 49°52' W 004°27'1716.6
2017-Mar-18 06:33N 49°53' W 004°01'1717.0
2017-Mar-18 05:34N 49°56' W 003°35'1817.9
2017-Mar-18 04:33N 49°60' W 003°08'1818.2
2017-Mar-18 03:33N 50°04' W 002°40'2017.5
2017-Mar-18 02:27N 50°09' W 002°11'1416.3
2017-Mar-18 01:33N 50°13' W 001°49'1515.1
2017-Mar-18 00:33N 50°19' W 001°27'1514.7
2017-Mar-17 23:33N 50°28' W 001°10'1110.9
2017-Mar-17 22:33N 50°36' W 000°57'8 7.9
2017-Mar-17 21:34N 50°43' W 001°02'1211.5
2017-Mar-17 20:33N 50°49' W 001°18'8 7.7
2017-Mar-17 19:33N 50°54' W 001°26'1 0.7
2017-Mar-17 18:10N 50°55' W 001°28'0 0.0
2017-Mar-17 17:31N 50°55' W 001°28'0 0.0
2017-Mar-17 16:31N 50°55' W 001°28'0 0.0
2017-Mar-17 15:31N 50°55' W 001°28'0 0.0
2017-Mar-17 14:28N 50°55' W 001°28'0 0.0
2017-Mar-17 13:31N 50°55' W 001°28'0 0.0
2017-Mar-17 12:31N 50°55' W 001°28'0 0.0
2017-Mar-17 11:22N 50°55' W 001°28'0 0.0
2017-Mar-17 10:31N 50°55' W 001°28'0 0.0
2017-Mar-17 09:28N 50°55' W 001°28'0 0.0
2017-Mar-17 08:16N 50°55' W 001°28'0 0.0
2017-Mar-17 07:31N 50°55' W 001°28'0 0.0
2017-Mar-17 06:28N 50°55' W 001°28'0 0.0
2017-Mar-17 05:28N 50°55' W 001°28'0 0.0
2017-Mar-17 04:31N 50°55' W 001°28'0 0.0
2017-Mar-17 03:22N 50°55' W 001°28'0 0.0
2017-Mar-17 02:31N 50°55' W 001°28'2 2.6
2017-Mar-17 01:33N 50°53' W 001°24'8 7.6
2017-Mar-17 00:34N 50°47' W 001°19'1414.4
2017-Mar-16 23:33N 50°42' W 000°57'8 8.4
2017-Mar-16 22:34N 50°36' W 000°49'1414.0
2017-Mar-16 21:33N 50°34' W 000°27'1717.0
2017-Mar-16 20:33N 50°32' W 000°01'1818.3
2017-Mar-16 19:33N 50°36' E 000°27'1918.5
2017-Mar-16 18:33N 50°44' E 000°54'1818.3
2017-Mar-16 17:33N 50°55' E 001°17'1817.6
2017-Mar-16 16:33N 51°07' E 001°36'1817.7
2017-Mar-16 15:33N 51°21' E 001°55'1616.0
2017-Mar-16 14:34N 51°34' E 002°09'1818.1
2017-Mar-16 13:33N 51°49' E 002°27'4019.7
2017-Mar-16 11:29N 52°19' E 003°10'1920.1
2017-Mar-16 10:33N 52°35' E 003°27'2019.4
2017-Mar-16 09:33N 52°50' E 003°48'1918.0
2017-Mar-16 08:29N 53°03' E 004°11'1616.8
2017-Mar-16 07:33N 53°16' E 004°27'1616.2
2017-Mar-16 06:33N 53°29' E 004°41'1817.7
2017-Mar-16 05:32N 53°36' E 005°09'2019.0
2017-Mar-16 04:29N 53°43' E 005°41'1819.1
2017-Mar-16 03:33N 53°48' E 006°10'1918.8
2017-Mar-16 02:33N 53°52' E 006°41'1818.4
2017-Mar-16 01:33N 53°56' E 007°12'1716.7
2017-Mar-16 00:31N 53°58' E 007°41'1413.1
2017-Mar-15 23:28N 53°51' E 008°01'1314.1
2017-Mar-15 22:33N 53°43' E 008°18'1111.1
2017-Mar-15 21:34N 53°35' E 008°31'0 0.4
2017-Mar-15 20:34N 53°35' E 008°32'0 0.0
2017-Mar-15 19:31N 53°35' E 008°32'0 0.0
2017-Mar-15 18:31N 53°35' E 008°32'0 0.0
2017-Mar-15 17:31N 53°35' E 008°32'0 0.0
2017-Mar-15 16:31N 53°35' E 008°32'0 0.0
2017-Mar-15 15:31N 53°35' E 008°32'0 0.0
2017-Mar-15 14:31N 53°35' E 008°32'0 0.0
2017-Mar-15 13:31N 53°35' E 008°32'0 0.0
2017-Mar-15 12:31N 53°35' E 008°32'0 0.0
2017-Mar-15 11:31N 53°35' E 008°32'0 0.0
2017-Mar-15 10:31N 53°35' E 008°32'0 0.0
2017-Mar-15 09:31N 53°35' E 008°32'0 0.0
2017-Mar-15 08:31N 53°35' E 008°32'0 0.0
2017-Mar-15 07:31N 53°35' E 008°32'0 0.0
2017-Mar-15 06:31N 53°35' E 008°32'0 0.0
2017-Mar-15 05:31N 53°35' E 008°32'0 0.0
2017-Mar-15 04:31N 53°35' E 008°32'5 4.9
2017-Mar-15 03:33N 53°38' E 008°26'1515.1
2017-Mar-15 02:33N 53°49' E 008°07'1212.1
2017-Mar-15 01:33N 53°53' E 007°48'9413.4
2017-Mar-14 18:33N 53°32' E 005°14'1716.9
2017-Mar-14 17:33N 53°25' E 004°47'1716.9
2017-Mar-14 16:33N 53°11' E 004°31'1818.3
2017-Mar-14 15:33N 52°55' E 004°18'1817.7
2017-Mar-14 14:34N 52°41' E 004°00'1717.4
2017-Mar-14 13:34N 52°28' E 003°40'1616.0
2017-Mar-14 12:34N 52°14' E 003°28'1616.2
2017-Mar-14 11:33N 51°58' E 003°22'1515.0
2017-Mar-14 10:33N 51°44' E 003°12'1312.7
2017-Mar-14 09:33N 51°32' E 003°07'8 8.2
2017-Mar-14 08:33N 51°24' E 003°10'1615.8
2017-Mar-14 07:33N 51°26' E 003°35'1413.8
2017-Mar-14 06:33N 51°24' E 003°57'1010.2
2017-Mar-14 05:33N 51°22' E 004°13'3 3.1
2017-Mar-14 04:34N 51°20' E 004°17'0 0.0
2017-Mar-14 03:33N 51°20' E 004°17'0 0.0
2017-Mar-14 02:34N 51°20' E 004°17'0 0.0
2017-Mar-14 01:34N 51°20' E 004°17'0 0.0
2017-Mar-14 00:34N 51°20' E 004°17'0 0.0
2017-Mar-13 23:33N 51°20' E 004°17'0 0.0
2017-Mar-13 22:33N 51°20' E 004°17'0 0.0
2017-Mar-13 21:33N 51°20' E 004°17'0 0.0
2017-Mar-13 20:34N 51°20' E 004°17'0 0.0
2017-Mar-13 19:33N 51°20' E 004°17'0 0.0
2017-Mar-13 18:34N 51°20' E 004°17'0 0.0
2017-Mar-13 17:33N 51°20' E 004°17'0 0.0
2017-Mar-13 16:33N 51°20' E 004°17'0 0.0
2017-Mar-13 15:31N 51°20' E 004°17'0 0.0
2017-Mar-13 14:34N 51°20' E 004°17'0 0.0
2017-Mar-13 13:32N 51°20' E 004°17'0 0.0
2017-Mar-13 12:33N 51°20' E 004°17'0 0.0
2017-Mar-13 11:31N 51°20' E 004°17'0 0.0
2017-Mar-13 10:32N 51°20' E 004°17'0 0.0
2017-Mar-13 09:33N 51°20' E 004°17'0 0.0
2017-Mar-13 08:32N 51°20' E 004°17'0 0.0
2017-Mar-13 07:34N 51°20' E 004°17'0 0.0
2017-Mar-13 06:34N 51°20' E 004°17'0 0.0
2017-Mar-13 05:32N 51°20' E 004°17'0 0.0
2017-Mar-13 04:34N 51°20' E 004°17'0 0.0
2017-Mar-13 03:33N 51°20' E 004°17'0 0.0
2017-Mar-13 02:31N 51°20' E 004°17'0 0.0
2017-Mar-13 01:34N 51°20' E 004°17'0 0.0
2017-Mar-13 00:34N 51°20' E 004°17'0 0.0
2017-Mar-12 23:33N 51°20' E 004°17'2 2.1
2017-Mar-12 22:34N 51°21' E 004°14'1110.6
2017-Mar-12 21:33N 51°25' E 003°58'1111.4
2017-Mar-12 20:33N 51°26' E 003°40'1212.1
2017-Mar-12 19:34N 51°24' E 003°21'1514.9
2017-Mar-12 18:33N 51°25' E 002°57'  
Track history (hours):
 
Tides and Currents Weather Stations Pressure Air Temp Water Temp Dewpoint Dewpoint Depression Visibility Wind Speed Wind Dir Waves Ship Positions

Yorktown Express

Owner: Marine Transport Management, Inc., Jacksonville, FL. More information available from US FCC via Universal Licensing System and Coast Guard Vessel Documentation Center.

Last reported at 2017-Mar-22 18:00 UTC. Time now 2017-Mar-22 22:08 UTC.
Position N 37°24' W 045°06'.

Type: Ship. MMSI: 367168650.

Wind from 230 at 18 knots

Barometer 1022.2 mb
Air temperature 22.0 ° C
Visibility: greater than 10.8 NM
Dewpoint 15.4 ° C
Water temperature 22.0 ° C

Date/timePositionNaut miles runAvg speedWind from/ knotsBaromVisibWave heightAir tempDewpointWater temp
2017-Mar-22 18:00N 37°24' W 045°06'11619.3 230 / 181022.210.8 22.015.422.0
2017-Mar-22 12:00N 37°42' W 042°42'11018.3 200 / 151022.310.8 21.017.820.0
2017-Mar-22 06:00N 38°18' W 040°30'11619.3 170 / 281023.110.8 19.015.720.0
2017-Mar-22 00:00N 39°00' W 038°12'11719.5 260 / 271028.110.8 19.013.820.0
2017-Mar-21 18:00N 39°48' W 035°54'10717.9 190 / 151029.710.8 18.0 8.318.0
2017-Mar-21 12:00N 40°24' W 033°42'9219.5 200 / 121032.410.8 18.0 5.818.0
2017-Mar-21 07:17N 41°03' W 031°52'2318.0
2017-Mar-21 06:00N 41°12' W 031°24'12020.0 250 / 121032.210.8 14.0 5.618.0
2017-Mar-21 00:00N 41°54' W 028°54'22418.7 290 / 151031.910.8 14.0 2.818.0
2017-Mar-20 12:00N 43°18' W 024°12'11118.5 300 / 251024.410.8 17.0 7.016.0
2017-Mar-20 06:00N 44°06' W 021°54'10818.0 300 / 251017.810.8 15.011.316.0
2017-Mar-20 00:00N 45°06' W 019°48'20316.9 220 / 351014.2 15.011.316.0
2017-Mar-19 12:00N 46°48' W 015°36'40317.1 230 / 301018.710.8 16.010.414.0
2017-Mar-18 12:24N 49°43' W 006°30'3217.2
2017-Mar-18 10:33N 49°46' W 005°42'1816.4
2017-Mar-18 09:29N 49°48' W 005°14'1516.1
2017-Mar-18 08:34N 49°51' W 004°52'1616.4
2017-Mar-18 07:34N 49°52' W 004°27'1716.6
2017-Mar-18 06:33N 49°53' W 004°01'1717.0
2017-Mar-18 05:34N 49°56' W 003°35'1817.9
2017-Mar-18 04:33N 49°60' W 003°08'1818.2
2017-Mar-18 03:33N 50°04' W 002°40'2017.5
2017-Mar-18 02:27N 50°09' W 002°11'1416.3
2017-Mar-18 01:33N 50°13' W 001°49'1515.1
2017-Mar-18 00:33N 50°19' W 001°27'1514.7
2017-Mar-17 23:33N 50°28' W 001°10'1110.9
2017-Mar-17 22:33N 50°36' W 000°57'8 7.9
2017-Mar-17 21:34N 50°43' W 001°02'1211.5
2017-Mar-17 20:33N 50°49' W 001°18'8 7.7
2017-Mar-17 19:33N 50°54' W 001°26'1 0.7
2017-Mar-17 18:10N 50°55' W 001°28'0 0.0
2017-Mar-17 17:31N 50°55' W 001°28'0 0.0
2017-Mar-17 16:31N 50°55' W 001°28'0 0.0
2017-Mar-17 15:31N 50°55' W 001°28'0 0.0
2017-Mar-17 14:28N 50°55' W 001°28'0 0.0
2017-Mar-17 13:31N 50°55' W 001°28'0 0.0
2017-Mar-17 12:31N 50°55' W 001°28'0 0.0
2017-Mar-17 11:22N 50°55' W 001°28'0 0.0
2017-Mar-17 10:31N 50°55' W 001°28'0 0.0
2017-Mar-17 09:28N 50°55' W 001°28'0 0.0
2017-Mar-17 08:16N 50°55' W 001°28'0 0.0
2017-Mar-17 07:31N 50°55' W 001°28'0 0.0
2017-Mar-17 06:28N 50°55' W 001°28'0 0.0
2017-Mar-17 05:28N 50°55' W 001°28'0 0.0
2017-Mar-17 04:31N 50°55' W 001°28'0 0.0
2017-Mar-17 03:22N 50°55' W 001°28'0 0.0
2017-Mar-17 02:31N 50°55' W 001°28'2 2.6
2017-Mar-17 01:33N 50°53' W 001°24'8 7.6
2017-Mar-17 00:34N 50°47' W 001°19'1414.4
2017-Mar-16 23:33N 50°42' W 000°57'8 8.4
2017-Mar-16 22:34N 50°36' W 000°49'1414.0
2017-Mar-16 21:33N 50°34' W 000°27'1717.0
2017-Mar-16 20:33N 50°32' W 000°01'1818.3
2017-Mar-16 19:33N 50°36' E 000°27'1918.5
2017-Mar-16 18:33N 50°44' E 000°54'1818.3
2017-Mar-16 17:33N 50°55' E 001°17'1817.6
2017-Mar-16 16:33N 51°07' E 001°36'1817.7
2017-Mar-16 15:33N 51°21' E 001°55'1616.0
2017-Mar-16 14:34N 51°34' E 002°09'1818.1
2017-Mar-16 13:33N 51°49' E 002°27'4019.7
2017-Mar-16 11:29N 52°19' E 003°10'1920.1
2017-Mar-16 10:33N 52°35' E 003°27'2019.4
2017-Mar-16 09:33N 52°50' E 003°48'1918.0
2017-Mar-16 08:29N 53°03' E 004°11'1616.8
2017-Mar-16 07:33N 53°16' E 004°27'1616.2
2017-Mar-16 06:33N 53°29' E 004°41'1817.7
2017-Mar-16 05:32N 53°36' E 005°09'2019.0
2017-Mar-16 04:29N 53°43' E 005°41'1819.1
2017-Mar-16 03:33N 53°48' E 006°10'1918.8
2017-Mar-16 02:33N 53°52' E 006°41'1818.4
2017-Mar-16 01:33N 53°56' E 007°12'1716.7
2017-Mar-16 00:31N 53°58' E 007°41'1413.1
2017-Mar-15 23:28N 53°51' E 008°01'1314.1
2017-Mar-15 22:33N 53°43' E 008°18'1111.1
2017-Mar-15 21:34N 53°35' E 008°31'0 0.4
2017-Mar-15 20:34N 53°35' E 008°32'0 0.0
2017-Mar-15 19:31N 53°35' E 008°32'0 0.0
2017-Mar-15 18:31N 53°35' E 008°32'0 0.0
2017-Mar-15 17:31N 53°35' E 008°32'0 0.0
2017-Mar-15 16:31N 53°35' E 008°32'0 0.0
2017-Mar-15 15:31N 53°35' E 008°32'0 0.0
2017-Mar-15 14:31N 53°35' E 008°32'0 0.0
2017-Mar-15 13:31N 53°35' E 008°32'0 0.0
2017-Mar-15 12:31N 53°35' E 008°32'0 0.0
2017-Mar-15 11:31N 53°35' E 008°32'0 0.0
2017-Mar-15 10:31N 53°35' E 008°32'0 0.0
2017-Mar-15 09:31N 53°35' E 008°32'0 0.0
2017-Mar-15 08:31N 53°35' E 008°32'0 0.0
2017-Mar-15 07:31N 53°35' E 008°32'0 0.0
2017-Mar-15 06:31N 53°35' E 008°32'0 0.0
2017-Mar-15 05:31N 53°35' E 008°32'0 0.0
2017-Mar-15 04:31N 53°35' E 008°32'5 4.9
2017-Mar-15 03:33N 53°38' E 008°26'1515.1
2017-Mar-15 02:33N 53°49' E 008°07'1212.1
2017-Mar-15 01:33N 53°53' E 007°48'9413.4
2017-Mar-14 18:33N 53°32' E 005°14'1716.9
2017-Mar-14 17:33N 53°25' E 004°47'1716.9
2017-Mar-14 16:33N 53°11' E 004°31'1818.3
2017-Mar-14 15:33N 52°55' E 004°18'1817.7
2017-Mar-14 14:34N 52°41' E 004°00'1717.4
2017-Mar-14 13:34N 52°28' E 003°40'1616.0
2017-Mar-14 12:34N 52°14' E 003°28'1616.2
2017-Mar-14 11:33N 51°58' E 003°22'1515.0
2017-Mar-14 10:33N 51°44' E 003°12'1312.7
2017-Mar-14 09:33N 51°32' E 003°07'8 8.2
2017-Mar-14 08:33N 51°24' E 003°10'1615.8
2017-Mar-14 07:33N 51°26' E 003°35'1413.8
2017-Mar-14 06:33N 51°24' E 003°57'1010.2
2017-Mar-14 05:33N 51°22' E 004°13'3 3.1
2017-Mar-14 04:34N 51°20' E 004°17'0 0.0
2017-Mar-14 03:33N 51°20' E 004°17'0 0.0
2017-Mar-14 02:34N 51°20' E 004°17'0 0.0
2017-Mar-14 01:34N 51°20' E 004°17'0 0.0
2017-Mar-14 00:34N 51°20' E 004°17'0 0.0
2017-Mar-13 23:33N 51°20' E 004°17'0 0.0
2017-Mar-13 22:33N 51°20' E 004°17'0 0.0
2017-Mar-13 21:33N 51°20' E 004°17'0 0.0
2017-Mar-13 20:34N 51°20' E 004°17'0 0.0
2017-Mar-13 19:33N 51°20' E 004°17'0 0.0
2017-Mar-13 18:34N 51°20' E 004°17'0 0.0
2017-Mar-13 17:33N 51°20' E 004°17'0 0.0
2017-Mar-13 16:33N 51°20' E 004°17'0 0.0
2017-Mar-13 15:31N 51°20' E 004°17'0 0.0
2017-Mar-13 14:34N 51°20' E 004°17'0 0.0
2017-Mar-13 13:32N 51°20' E 004°17'0 0.0
2017-Mar-13 12:33N 51°20' E 004°17'0 0.0
2017-Mar-13 11:31N 51°20' E 004°17'0 0.0
2017-Mar-13 10:32N 51°20' E 004°17'0 0.0
2017-Mar-13 09:33N 51°20' E 004°17'0 0.0
2017-Mar-13 08:32N 51°20' E 004°17'0 0.0
2017-Mar-13 07:34N 51°20' E 004°17'0 0.0
2017-Mar-13 06:34N 51°20' E 004°17'0 0.0
2017-Mar-13 05:32N 51°20' E 004°17'0 0.0
2017-Mar-13 04:34N 51°20' E 004°17'0 0.0
2017-Mar-13 03:33N 51°20' E 004°17'0 0.0
2017-Mar-13 02:31N 51°20' E 004°17'0 0.0
2017-Mar-13 01:34N 51°20' E 004°17'0 0.0
2017-Mar-13 00:34N 51°20' E 004°17'0 0.0
2017-Mar-12 23:33N 51°20' E 004°17'2 2.1
2017-Mar-12 22:34N 51°21' E 004°14'1110.6
2017-Mar-12 21:33N 51°25' E 003°58'1111.4
2017-Mar-12 20:33N 51°26' E 003°40'1212.1
2017-Mar-12 19:34N 51°24' E 003°21'1514.9
2017-Mar-12 18:33N 51°25' E 002°57'  

Dump ship's entire track history